KBVY/BVY METAR and TAF weather

Enter ICAO airport designator
Station Type Date Time Source
KBVY METAR 2019/12/07 09:53 UTC NOAA

KBVY 070953Z AUTO 30006KT 10SM CLR M04/M09 A3018 RMK AO2 SLP216 T10441094


Station Type Date Time Source
KBVY Decoded METAR 2019/12/07 09:53 UTC NOAA

BEVERLY MUNICIPAL AIRPORT, MA, United States (KBVY) 42-35N 070-55W 28M
Dec 07, 2019 - 04:53 AM EST / 2019.12.07 0953 UTC
Wind: from the WNW (300 degrees) at 7 MPH (6 KT):0
Visibility: 10 mile(s):0
Sky conditions: clear
Temperature: 24.1 F (-4.4 C)
Windchill: 15 F (-9 C):1
Dew Point: 15.1 F (-9.4 C)
Relative Humidity: 68%
Pressure (altimeter): 30.18 in. Hg (1022 hPa)
ob: KBVY 070953Z AUTO 30006KT 10SM CLR M04/M09 A3018 RMK AO2 SLP216 T10441094
cycle: 10

Station Type Date Time Source
KBVY TAF UTC NOAA

Error!

Example: see airport list